This is the latest recevied weather packets stored in our database for station/object N3DOU-1. If no packets are shown the sender has not sent any weather packets the latest 10 day(s).
| Time | Temp. | Humidity | Pressure | Rain* | Wind** | Luminosity | Snow |
|---|---|---|---|---|---|---|---|
| 1777850785 | 15° C | 39% | 1013.6 hPa | 0 mm | - | - | - |
| 1777849882 | 15.56° C | 40% | 1013.7 hPa | 0 mm | - | - | - |
| 1777848984 | 16.11° C | 36% | 1013.7 hPa | 0 mm | - | - | - |
| 1777848083 | 16.11° C | 33% | 1013.6 hPa | 0 mm | - | - | - |
| 1777847182 | 16.67° C | 35% | 1013.6 hPa | 0 mm | - | - | - |
| 1777846285 | 16.67° C | 33% | 1013.7 hPa | 0 mm | - | - | - |
| 1777845384 | 17.22° C | 34% | 1013.7 hPa | 0 mm | - | - | - |
| 1777844485 | 17.22° C | 32% | 1013.6 hPa | 0 mm | - | - | - |
| 1777843585 | 17.22° C | 32% | 1013.6 hPa | 0 mm | - | - | - |
| 1777842682 | 16.67° C | 37% | 1013.7 hPa | 0 mm | - | - | - |
| 1777841784 | 16.67° C | 34% | 1013.7 hPa | 0 mm | - | - | - |
| 1777840884 | 17.22° C | 35% | 1013.6 hPa | 0 mm | - | - | - |
| 1777839983 | 16.67° C | 37% | 1013.8 hPa | 0 mm | - | - | - |
| 1777839082 | 16.67° C | 35% | 1013.9 hPa | 0 mm | - | - | - |
| 1777838183 | 16.67° C | 34% | 1014.1 hPa | 0 mm | - | - | - |
| 1777837283 | 16.11° C | 38% | 1014.2 hPa | 0 mm | - | - | - |
| 1777836384 | 16.67° C | 37% | 1014.3 hPa | 0 mm | - | - | - |
| 1777835485 | 16.67° C | 35% | 1014.4 hPa | 0 mm | - | - | - |
| 1777833683 | 15.56° C | 34% | 1014.8 hPa | 0 mm | - | - | - |
| 1777832783 | 15.56° C | 34% | 1014.8 hPa | 0 mm | - | - | - |
| 1777831883 | 15.56° C | 35% | 1014.9 hPa | 0 mm | - | - | - |
| 1777830982 | 15.56° C | 38% | 1014.9 hPa | 0 mm | - | - | - |
| 1777830083 | 15° C | 37% | 1015.1 hPa | 0 mm | - | - | - |
| 1777829184 | 15° C | 34% | 1015.2 hPa | 0 mm | - | - | - |
| 1777828283 | 14.44° C | 35% | 1015.3 hPa | 0 mm | - | - | - |
* Rain latest hour (hover to see other rain measurements)
** Current wind speed in m/s (hover to see current wind gust speed)